createdAt,value
2019-05-10T00:00:42.617Z,880.83
2019-05-10T00:01:42.603Z,880.87
2019-05-10T00:02:42.585Z,880.86
2019-05-10T00:03:42.569Z,880.86
2019-05-10T00:04:42.559Z,880.83
2019-05-10T00:05:42.548Z,880.84
2019-05-10T00:06:42.528Z,880.78
2019-05-10T00:07:42.522Z,880.77
2019-05-10T00:08:42.500Z,880.77
2019-05-10T00:09:42.490Z,880.81
2019-05-10T00:10:42.476Z,880.84
2019-05-10T00:11:42.462Z,880.89
2019-05-10T00:12:42.448Z,880.89
2019-05-10T00:13:42.542Z,880.89
2019-05-10T00:14:42.427Z,880.86
2019-05-10T00:15:42.401Z,880.86
2019-05-10T00:16:42.391Z,880.84
2019-05-10T00:17:42.377Z,880.88
2019-05-10T00:18:42.366Z,880.87
2019-05-10T00:19:42.351Z,880.89
2019-05-10T00:20:42.337Z,880.88
2019-05-10T00:21:42.325Z,880.87
2019-05-10T00:22:42.312Z,880.90
2019-05-10T00:23:42.288Z,880.87
2019-05-10T00:24:42.280Z,880.89
2019-05-10T00:25:42.264Z,880.85
2019-05-10T00:26:42.254Z,880.81
2019-05-10T00:27:42.238Z,880.77
2019-05-10T00:28:42.220Z,880.81
2019-05-10T00:29:42.210Z,880.78
2019-05-10T00:30:42.198Z,880.78
2019-05-10T00:31:42.185Z,880.75
2019-05-10T00:32:42.166Z,880.72
2019-05-10T00:33:42.159Z,880.70
2019-05-10T00:34:42.141Z,880.69
2019-05-10T00:35:42.121Z,880.72
2019-05-10T00:36:42.111Z,880.70
2019-05-10T00:37:42.099Z,880.74
2019-05-10T00:38:42.084Z,880.79
2019-05-10T00:39:42.073Z,880.83
2019-05-10T00:40:42.062Z,880.78
2019-05-10T00:41:42.038Z,880.82
2019-05-10T00:42:42.022Z,880.80
2019-05-10T00:43:42.014Z,880.76
2019-05-10T00:44:41.996Z,880.79
2019-05-10T00:45:41.996Z,880.79
2019-05-10T00:46:41.980Z,880.76
2019-05-10T00:47:41.955Z,880.73
2019-05-10T00:48:41.954Z,880.78
2019-05-10T00:49:41.926Z,880.78
2019-05-10T00:50:41.916Z,880.78
2019-05-10T00:51:41.902Z,880.75
2019-05-10T00:52:41.886Z,880.76
2019-05-10T00:53:41.873Z,880.79
2019-05-10T00:54:41.860Z,880.75
2019-05-10T00:55:41.844Z,880.74
2019-05-10T00:56:41.832Z,880.73
2019-05-10T00:57:41.818Z,880.71
2019-05-10T00:58:41.804Z,880.68
2019-05-10T00:59:41.788Z,880.68
2019-05-10T01:00:41.783Z,880.67
2019-05-10T01:01:41.762Z,880.64
2019-05-10T01:02:41.747Z,880.65
2019-05-10T01:03:41.734Z,880.63
2019-05-10T01:04:41.723Z,880.64
2019-05-10T01:05:41.705Z,880.65
2019-05-10T01:06:41.695Z,880.65
2019-05-10T01:07:41.675Z,880.66
2019-05-10T01:08:41.665Z,880.64
2019-05-10T01:09:41.649Z,880.64
2019-05-10T01:10:41.640Z,880.65
2019-05-10T01:11:41.636Z,880.69
2019-05-10T01:12:41.618Z,880.68
2019-05-10T01:13:41.594Z,880.69
2019-05-10T01:14:41.577Z,880.67
2019-05-10T01:15:41.567Z,880.68
2019-05-10T01:16:41.559Z,880.64
2019-05-10T01:17:41.545Z,880.65
2019-05-10T01:18:41.528Z,880.64
2019-05-10T01:19:41.518Z,880.66
2019-05-10T01:20:41.502Z,880.64
2019-05-10T01:21:41.486Z,880.63
2019-05-10T01:22:41.467Z,880.67
2019-05-10T01:23:41.457Z,880.69
2019-05-10T01:24:41.439Z,880.76
2019-05-10T01:25:41.422Z,880.75
2019-05-10T01:26:41.412Z,880.75
2019-05-10T01:27:41.396Z,880.77
2019-05-10T01:28:41.390Z,880.76
2019-05-10T01:29:41.380Z,880.69
2019-05-10T01:30:41.369Z,880.70
2019-05-10T01:31:41.339Z,880.67
2019-05-10T01:32:41.330Z,880.64
2019-05-10T01:33:41.317Z,880.64
2019-05-10T01:34:41.300Z,880.64
2019-05-10T01:35:41.293Z,880.66
2019-05-10T01:36:41.274Z,880.64
2019-05-10T01:37:41.265Z,880.64
2019-05-10T01:38:41.246Z,880.69
2019-05-10T01:39:41.232Z,880.72
2019-05-10T01:40:41.220Z,880.73
2019-05-10T01:41:41.206Z,880.73
2019-05-10T01:42:41.197Z,880.76
2019-05-10T01:43:41.177Z,880.79
2019-05-10T01:44:41.165Z,880.78
2019-05-10T01:45:41.147Z,880.79
2019-05-10T01:46:41.130Z,880.79
2019-05-10T01:47:41.128Z,880.80
2019-05-10T01:48:41.109Z,880.81
2019-05-10T01:49:41.095Z,880.80
2019-05-10T01:50:41.076Z,880.86
2019-05-10T01:51:41.068Z,880.88
2019-05-10T01:52:41.045Z,880.86
2019-05-10T01:53:41.036Z,880.89
2019-05-10T01:54:41.024Z,880.86
2019-05-10T01:55:51.464Z,880.90
2019-05-10T01:56:40.998Z,880.92
2019-05-10T01:57:40.978Z,880.91
2019-05-10T01:58:40.963Z,880.89
2019-05-10T01:59:40.953Z,880.92
2019-05-10T02:00:40.938Z,880.97
2019-05-10T02:01:40.921Z,880.96
2019-05-10T02:02:40.906Z,880.98
2019-05-10T02:03:40.895Z,880.97
2019-05-10T02:04:40.880Z,881.00
2019-05-10T02:05:40.874Z,880.98
2019-05-10T02:06:40.849Z,881.02
2019-05-10T02:07:40.837Z,881.00
2019-05-10T02:08:40.819Z,881.00
2019-05-10T02:09:40.806Z,881.02
2019-05-10T02:10:40.795Z,881.01
2019-05-10T02:11:40.777Z,881.01
2019-05-10T02:12:40.767Z,881.04
2019-05-10T02:13:40.747Z,881.03
2019-05-10T02:14:40.736Z,881.02
2019-05-10T02:15:40.726Z,881.00
2019-05-10T02:16:40.727Z,881.02
2019-05-10T02:17:40.696Z,881.01
2019-05-10T02:18:40.678Z,880.95
2019-05-10T02:19:40.666Z,880.97
2019-05-10T02:20:40.652Z,880.95
2019-05-10T02:21:40.641Z,880.97
2019-05-10T02:22:40.617Z,880.91
2019-05-10T02:23:40.609Z,880.99
2019-05-10T02:24:40.588Z,880.94
2019-05-10T02:25:40.577Z,880.96
2019-05-10T02:26:40.562Z,881.00
2019-05-10T02:27:40.541Z,880.96
2019-05-10T02:28:40.531Z,881.01
2019-05-10T02:29:40.518Z,881.02
2019-05-10T02:30:40.514Z,881.00
2019-05-10T02:31:40.494Z,881.01
2019-05-10T02:32:40.522Z,881.00
2019-05-10T02:33:40.465Z,881.02
2019-05-10T02:34:40.449Z,881.05
2019-05-10T02:35:40.440Z,881.04
2019-05-10T02:36:40.434Z,881.00
2019-05-10T02:37:40.402Z,881.04
2019-05-10T02:38:40.392Z,881.05
2019-05-10T02:39:40.459Z,881.02
2019-05-10T02:40:40.365Z,881.05
2019-05-10T02:41:40.359Z,881.06
2019-05-10T02:42:40.342Z,881.09
2019-05-10T02:43:40.324Z,881.08
2019-05-10T02:44:40.312Z,881.11
2019-05-10T02:45:40.299Z,881.06
2019-05-10T02:46:40.281Z,881.08
2019-05-10T02:47:40.266Z,881.09
2019-05-10T02:48:40.255Z,881.08
2019-05-10T02:49:40.232Z,881.07
2019-05-10T02:50:40.223Z,881.08
2019-05-10T02:51:40.209Z,881.10
2019-05-10T02:52:40.191Z,881.09
2019-05-10T02:53:40.175Z,881.07
2019-05-10T02:54:40.165Z,881.10
2019-05-10T02:55:40.155Z,881.04
2019-05-10T02:56:40.145Z,881.03
2019-05-10T02:57:40.125Z,880.97
2019-05-10T02:58:40.105Z,880.99
2019-05-10T02:59:40.101Z,880.97
2019-05-10T03:00:40.080Z,880.98
2019-05-10T03:01:40.063Z,880.95
2019-05-10T03:02:40.054Z,880.96
2019-05-10T03:03:40.044Z,880.93
2019-05-10T03:04:40.024Z,880.91
2019-05-10T03:05:40.011Z,880.91
2019-05-10T03:06:40.006Z,880.94
2019-05-10T03:07:40.059Z,880.96
2019-05-10T03:08:39.969Z,881.00
2019-05-10T03:09:39.954Z,880.97
2019-05-10T03:10:39.940Z,880.95
2019-05-10T03:11:39.923Z,880.97
2019-05-10T03:12:40.005Z,880.95
2019-05-10T03:13:39.895Z,880.95
2019-05-10T03:14:39.886Z,880.96
2019-05-10T03:15:39.868Z,880.96
2019-05-10T03:16:39.855Z,880.97
2019-05-10T03:17:39.839Z,880.94
2019-05-10T03:18:39.843Z,880.90
2019-05-10T03:19:39.814Z,880.92
2019-05-10T03:20:39.802Z,880.91
2019-05-10T03:21:39.785Z,880.88
2019-05-10T03:22:39.769Z,880.91
2019-05-10T03:23:39.755Z,880.90
2019-05-10T03:24:39.747Z,880.89
2019-05-10T03:25:39.748Z,880.86
2019-05-10T03:26:50.163Z,880.88
2019-05-10T03:27:39.696Z,880.91
2019-05-10T03:28:39.690Z,880.87
2019-05-10T03:29:39.671Z,880.90
2019-05-10T03:30:39.656Z,880.93
2019-05-10T03:31:39.639Z,880.94
2019-05-10T03:32:39.640Z,880.92
2019-05-10T03:33:39.612Z,880.92
2019-05-10T03:34:39.650Z,880.90
2019-05-10T03:35:39.583Z,880.94
2019-05-10T03:36:39.574Z,880.95
2019-05-10T03:37:39.556Z,880.96
2019-05-10T03:38:39.536Z,880.94
2019-05-10T03:39:39.527Z,880.97
2019-05-10T03:40:39.512Z,880.98
2019-05-10T03:41:39.497Z,881.00
2019-05-10T03:42:39.490Z,881.04
2019-05-10T03:43:39.472Z,881.08
2019-05-10T03:44:39.459Z,881.05
2019-05-10T03:45:39.450Z,881.07
2019-05-10T03:46:39.424Z,881.07
2019-05-10T03:47:39.411Z,881.06
2019-05-10T03:48:39.404Z,881.09
2019-05-10T03:49:39.386Z,881.06
2019-05-10T03:50:39.375Z,881.09
2019-05-10T03:51:39.357Z,881.09
2019-05-10T03:52:39.351Z,881.10
2019-05-10T03:53:39.327Z,881.13
2019-05-10T03:54:39.318Z,881.12
2019-05-10T03:55:39.310Z,881.17
2019-05-10T03:56:39.284Z,881.17
2019-05-10T03:57:39.270Z,881.17
2019-05-10T03:58:39.252Z,881.21
2019-05-10T03:59:39.253Z,881.20
2019-05-10T04:00:39.228Z,881.23
2019-05-10T04:01:39.206Z,881.21
2019-05-10T04:02:39.208Z,881.25
2019-05-10T04:03:39.186Z,881.20
2019-05-10T04:04:39.186Z,881.24
2019-05-10T04:05:39.156Z,881.19
2019-05-10T04:06:39.148Z,881.20
2019-05-10T04:07:39.149Z,881.17
2019-05-10T04:08:39.115Z,881.17
2019-05-10T04:09:39.104Z,881.23
2019-05-10T04:10:39.076Z,881.19
2019-05-10T04:11:39.070Z,881.20
2019-05-10T04:12:39.055Z,881.21
2019-05-10T04:13:39.069Z,881.26
2019-05-10T04:14:39.027Z,881.24
2019-05-10T04:15:39.015Z,881.25
2019-05-10T04:16:39.003Z,881.30
2019-05-10T04:17:38.989Z,881.28
2019-05-10T04:18:38.969Z,881.26
2019-05-10T04:19:38.957Z,881.25
2019-05-10T04:20:38.939Z,881.21
2019-05-10T04:21:38.930Z,881.24
2019-05-10T04:22:38.916Z,881.20
2019-05-10T04:23:38.898Z,881.22
2019-05-10T04:24:38.881Z,881.21
2019-05-10T04:25:38.865Z,881.20
2019-05-10T04:26:38.852Z,881.24
2019-05-10T04:27:38.845Z,881.22
2019-05-10T04:28:38.825Z,881.24
2019-05-10T04:29:38.807Z,881.27
2019-05-10T04:30:38.798Z,881.26
2019-05-10T04:31:38.787Z,881.25
2019-05-10T04:32:38.775Z,881.26
2019-05-10T04:33:38.755Z,881.25
2019-05-10T04:34:38.736Z,881.25
2019-05-10T04:35:38.737Z,881.22
2019-05-10T04:36:38.720Z,881.21
2019-05-10T04:37:38.696Z,881.22
2019-05-10T04:38:38.676Z,881.22
2019-05-10T04:39:38.668Z,881.25
2019-05-10T04:40:38.654Z,881.27
2019-05-10T04:41:38.633Z,881.25
2019-05-10T04:42:38.625Z,881.26
2019-05-10T04:43:38.610Z,881.27
2019-05-10T04:44:38.601Z,881.25
2019-05-10T04:45:38.574Z,881.24
2019-05-10T04:46:38.661Z,881.25
2019-05-10T04:47:38.550Z,881.33
2019-05-10T04:48:38.537Z,881.35
2019-05-10T04:49:38.520Z,881.38
2019-05-10T04:50:38.506Z,881.40
2019-05-10T04:51:38.515Z,881.38
2019-05-10T04:52:38.480Z,881.37
2019-05-10T04:53:38.464Z,881.39
2019-05-10T04:54:38.453Z,881.39
2019-05-10T04:55:38.508Z,881.40
2019-05-10T04:56:38.422Z,881.42
2019-05-10T04:57:50.091Z,881.45
2019-05-10T04:58:38.393Z,881.48
2019-05-10T04:59:38.375Z,881.53
2019-05-10T05:00:38.360Z,881.50
2019-05-10T05:01:38.348Z,881.54
2019-05-10T05:02:38.346Z,881.55
2019-05-10T05:03:38.314Z,881.53
2019-05-10T05:04:38.304Z,881.55
2019-05-10T05:05:38.283Z,881.54
2019-05-10T05:06:38.275Z,881.57
2019-05-10T05:07:38.259Z,881.59
2019-05-10T05:08:38.243Z,881.60
2019-05-10T05:09:38.225Z,881.59
2019-05-10T05:10:38.246Z,881.63
2019-05-10T05:11:38.200Z,881.63
2019-05-10T05:12:38.188Z,881.64
2019-05-10T05:13:38.170Z,881.63
2019-05-10T05:14:38.153Z,881.67
2019-05-10T05:15:38.137Z,881.65
2019-05-10T05:16:38.123Z,881.70
2019-05-10T05:17:38.111Z,881.71
2019-05-10T05:18:38.093Z,881.70
2019-05-10T05:19:40.854Z,881.72
2019-05-10T05:20:38.072Z,881.72
2019-05-10T05:21:38.054Z,881.73
2019-05-10T05:22:38.036Z,881.74
2019-05-10T05:23:38.022Z,881.72
2019-05-10T05:24:38.015Z,881.71
2019-05-10T05:25:40.300Z,881.71
2019-05-10T05:26:37.982Z,881.69
2019-05-10T05:27:37.963Z,881.69
2019-05-10T05:28:37.951Z,881.69
2019-05-10T05:29:37.935Z,881.73
2019-05-10T05:30:38.877Z,881.73
2019-05-10T05:31:37.913Z,881.74
2019-05-10T05:32:38.485Z,881.76
2019-05-10T05:33:37.880Z,881.75
2019-05-10T05:34:37.866Z,881.76
2019-05-10T05:35:37.842Z,881.73
2019-05-10T05:36:37.836Z,881.76
2019-05-10T05:37:37.822Z,881.77
2019-05-10T05:38:40.346Z,881.79
2019-05-10T05:39:37.788Z,881.82
2019-05-10T05:40:37.774Z,881.83
2019-05-10T05:41:47.882Z,881.83
2019-05-10T05:42:37.747Z,881.84
2019-05-10T05:43:45.788Z,881.84
2019-05-10T05:44:37.719Z,881.82
2019-05-10T05:45:37.708Z,881.84
2019-05-10T05:46:37.695Z,881.84
2019-05-10T05:47:42.138Z,881.86
2019-05-10T05:48:40.395Z,881.85
2019-05-10T05:49:37.646Z,881.85
2019-05-10T05:50:37.633Z,881.85
2019-05-10T05:51:37.617Z,881.87
2019-05-10T05:52:37.599Z,881.88
2019-05-10T05:53:42.189Z,881.86
2019-05-10T05:54:37.576Z,881.89
2019-05-10T05:55:37.566Z,881.89
2019-05-10T05:56:37.554Z,881.87
2019-05-10T05:57:37.529Z,881.92
2019-05-10T05:58:38.067Z,881.94
2019-05-10T05:59:37.501Z,882.00
2019-05-10T06:00:44.061Z,882.00
2019-05-10T06:01:37.470Z,882.01
2019-05-10T06:02:43.950Z,882.03
2019-05-10T06:03:37.652Z,882.02
2019-05-10T06:04:40.720Z,882.03
2019-05-10T06:05:37.530Z,882.04
2019-05-10T06:06:37.399Z,882.08
2019-05-10T06:07:38.309Z,882.07
2019-05-10T06:08:37.371Z,882.05
2019-05-10T06:09:37.918Z,882.09
2019-05-10T06:10:37.343Z,882.08
2019-05-10T06:11:37.890Z,882.08
2019-05-10T06:12:37.311Z,882.13
2019-05-10T06:13:37.298Z,882.13
2019-05-10T06:14:37.376Z,882.13
2019-05-10T06:15:37.278Z,882.14
2019-05-10T06:16:37.261Z,882.11
2019-05-10T06:17:37.265Z,882.15
2019-05-10T06:18:41.706Z,882.16
2019-05-10T06:19:37.212Z,882.14
2019-05-10T06:20:38.128Z,882.13
2019-05-10T06:21:37.185Z,882.19
2019-05-10T06:22:38.260Z,882.15
2019-05-10T06:23:37.158Z,882.13
2019-05-10T06:24:37.139Z,882.16
2019-05-10T06:25:40.002Z,882.19
2019-05-10T06:26:37.113Z,882.20
2019-05-10T06:27:41.103Z,882.20
2019-05-10T06:28:57.681Z,882.24
2019-05-10T06:29:37.072Z,882.26
2019-05-10T06:30:37.055Z,882.29
2019-05-10T06:31:37.045Z,882.30
2019-05-10T06:32:37.031Z,882.30
2019-05-10T06:33:39.683Z,882.28
2019-05-10T06:34:38.938Z,882.30
2019-05-10T06:35:36.982Z,882.33
2019-05-10T06:36:36.976Z,882.35
2019-05-10T06:37:36.952Z,882.34
2019-05-10T06:38:36.946Z,882.31
2019-05-10T06:39:36.919Z,882.36
2019-05-10T06:40:44.532Z,882.34
2019-05-10T06:41:36.893Z,882.35
2019-05-10T06:42:36.894Z,882.35
2019-05-10T06:43:36.865Z,882.35
2019-05-10T06:44:36.854Z,882.33
2019-05-10T06:45:36.835Z,882.33
2019-05-10T06:46:36.824Z,882.36
2019-05-10T06:47:41.914Z,882.37
2019-05-10T06:48:36.792Z,882.38
2019-05-10T06:49:41.624Z,882.41
2019-05-10T06:50:36.780Z,882.40
2019-05-10T06:51:36.750Z,882.37
2019-05-10T06:52:36.742Z,882.33
2019-05-10T06:53:42.272Z,882.35
2019-05-10T06:54:36.707Z,882.36
2019-05-10T06:55:36.707Z,882.34
2019-05-10T06:56:36.685Z,882.32
2019-05-10T06:57:36.665Z,882.30
2019-05-10T06:58:38.447Z,882.31
2019-05-10T06:59:36.642Z,882.30
2019-05-10T07:00:38.077Z,882.33
2019-05-10T07:01:38.507Z,882.35
2019-05-10T07:02:36.596Z,882.33
2019-05-10T07:03:36.579Z,882.36
2019-05-10T07:04:40.972Z,882.38
2019-05-10T07:05:36.552Z,882.38
2019-05-10T07:06:36.539Z,882.36
2019-05-10T07:07:43.934Z,882.35
2019-05-10T07:08:44.226Z,882.31
2019-05-10T07:10:01.781Z,882.31
2019-05-10T07:10:36.473Z,882.30
2019-05-10T07:11:36.466Z,882.34
2019-05-10T07:12:36.486Z,882.35
2019-05-10T07:13:40.557Z,882.38
2019-05-10T07:14:36.425Z,882.38
2019-05-10T07:15:42.351Z,882.38
2019-05-10T07:16:36.395Z,882.37
2019-05-10T07:17:41.361Z,882.37
2019-05-10T07:18:36.366Z,882.39
2019-05-10T07:19:42.067Z,882.41
2019-05-10T07:20:36.340Z,882.39
2019-05-10T07:21:39.113Z,882.42
2019-05-10T07:22:36.311Z,882.44
2019-05-10T07:23:38.984Z,882.49
2019-05-10T07:24:36.283Z,882.49
2019-05-10T07:25:37.952Z,882.45
2019-05-10T07:26:36.254Z,882.52
2019-05-10T07:27:38.207Z,882.52
2019-05-10T07:28:36.224Z,882.51
2019-05-10T07:29:42.721Z,882.47
2019-05-10T07:30:36.198Z,882.51
2019-05-10T07:31:36.182Z,882.53
2019-05-10T07:32:36.177Z,882.52
2019-05-10T07:33:37.316Z,882.55
2019-05-10T07:34:36.139Z,882.54
2019-05-10T07:35:37.244Z,882.53
2019-05-10T07:36:36.111Z,882.55
2019-05-10T07:37:36.095Z,882.56
2019-05-10T07:38:36.080Z,882.50
2019-05-10T07:39:36.063Z,882.54
2019-05-10T07:40:36.088Z,882.53
2019-05-10T07:41:36.048Z,882.52
2019-05-10T07:42:39.859Z,882.57
2019-05-10T07:43:36.013Z,882.56
2019-05-10T07:44:35.997Z,882.57
2019-05-10T07:45:35.991Z,882.58
2019-05-10T07:46:39.870Z,882.55
2019-05-10T07:47:36.001Z,882.54
2019-05-10T07:48:41.029Z,882.57
2019-05-10T07:49:35.931Z,882.57
2019-05-10T07:50:35.915Z,882.63
2019-05-10T07:51:35.903Z,882.60
2019-05-10T07:52:36.316Z,882.65
2019-05-10T07:53:35.870Z,882.62
2019-05-10T07:54:37.728Z,882.64
2019-05-10T07:55:35.848Z,882.61
2019-05-10T07:56:38.964Z,882.60
2019-05-10T07:57:35.814Z,882.60
2019-05-10T07:58:38.268Z,882.64
2019-05-10T07:59:49.613Z,882.63
2019-05-10T08:00:38.265Z,882.68
2019-05-10T08:01:35.764Z,882.65
2019-05-10T08:02:35.747Z,882.65
2019-05-10T08:03:41.058Z,882.63
2019-05-10T08:04:35.725Z,882.64
2019-05-10T08:05:35.709Z,882.63
2019-05-10T08:06:43.445Z,882.61
2019-05-10T08:07:35.680Z,882.60
2019-05-10T08:08:35.668Z,882.65
2019-05-10T08:09:37.130Z,882.58
2019-05-10T08:10:35.645Z,882.61
2019-05-10T08:11:35.625Z,882.63
2019-05-10T08:12:41.317Z,882.65
2019-05-10T08:13:35.595Z,882.64
2019-05-10T08:14:35.585Z,882.62
2019-05-10T08:15:35.573Z,882.62
2019-05-10T08:16:35.561Z,882.62
2019-05-10T08:17:40.259Z,882.58
2019-05-10T08:18:35.527Z,882.57
2019-05-10T08:19:37.499Z,882.60
2019-05-10T08:20:46.600Z,882.56
2019-05-10T08:21:35.493Z,882.54
2019-05-10T08:22:41.413Z,882.57
2019-05-10T08:23:35.460Z,882.54
2019-05-10T08:24:35.627Z,882.59
2019-05-10T08:25:40.985Z,882.62
2019-05-10T08:26:35.426Z,882.63
2019-05-10T08:27:35.406Z,882.59
2019-05-10T08:28:37.858Z,882.63
2019-05-10T08:29:35.386Z,882.61
2019-05-10T08:30:35.371Z,882.63
2019-05-10T08:31:40.620Z,882.60
2019-05-10T08:32:35.343Z,882.59
2019-05-10T08:33:35.346Z,882.60
2019-05-10T08:34:39.209Z,882.58
2019-05-10T08:35:36.697Z,882.62
2019-05-10T08:36:37.202Z,882.65
2019-05-10T08:37:37.780Z,882.66
2019-05-10T08:38:39.556Z,882.67
2019-05-10T08:39:45.276Z,882.60
2019-05-10T08:40:37.989Z,882.65
2019-05-10T08:41:35.248Z,882.65
2019-05-10T08:42:44.188Z,882.65
2019-05-10T08:43:39.011Z,882.65
2019-05-10T08:44:35.175Z,882.62
2019-05-10T08:45:38.657Z,882.64
2019-05-10T08:46:40.952Z,882.66
2019-05-10T08:47:35.144Z,882.62
2019-05-10T08:48:38.093Z,882.69
2019-05-10T08:49:44.056Z,882.68
2019-05-10T08:50:49.636Z,882.69
2019-05-10T08:51:44.188Z,882.71
2019-05-10T08:52:35.073Z,882.72
2019-05-10T08:53:35.059Z,882.73
2019-05-10T08:54:35.048Z,882.72
2019-05-10T08:55:35.036Z,882.71
2019-05-10T08:56:35.024Z,882.73
2019-05-10T08:57:43.306Z,882.75
2019-05-10T08:58:37.226Z,882.73
2019-05-10T08:59:34.981Z,882.75
2019-05-10T09:00:49.335Z,882.74
2019-05-10T09:01:44.707Z,882.71
2019-05-10T09:02:34.940Z,882.75
2019-05-10T09:03:34.926Z,882.74
2019-05-10T09:04:42.760Z,882.75
2019-05-10T09:05:34.905Z,882.75
2019-05-10T09:06:34.886Z,882.69
2019-05-10T09:07:38.832Z,882.74
2019-05-10T09:08:34.919Z,882.72
2019-05-10T09:09:45.731Z,882.74
2019-05-10T09:10:34.831Z,882.74
2019-05-10T09:11:34.820Z,882.75
2019-05-10T09:12:34.809Z,882.75
2019-05-10T09:13:40.990Z,882.76
2019-05-10T09:14:34.779Z,882.77
2019-05-10T09:15:34.763Z,882.77
2019-05-10T09:16:41.207Z,882.76
2019-05-10T09:17:34.739Z,882.77
2019-05-10T09:18:38.017Z,882.78
2019-05-10T09:19:40.553Z,882.78
2019-05-10T09:20:34.694Z,882.77
2019-05-10T09:21:34.686Z,882.77
2019-05-10T09:22:38.530Z,882.76
2019-05-10T09:23:34.655Z,882.75
2019-05-10T09:24:40.104Z,882.76
2019-05-10T09:25:34.633Z,882.80
2019-05-10T09:26:34.617Z,882.80
2019-05-10T09:27:34.614Z,882.78
2019-05-10T09:28:34.593Z,882.84
2019-05-10T09:29:37.245Z,882.83
2019-05-10T09:30:35.645Z,882.85
2019-05-10T09:31:34.551Z,882.78
2019-05-10T09:32:34.542Z,882.77
2019-05-10T09:33:34.527Z,882.81
2019-05-10T09:34:34.511Z,882.76
2019-05-10T09:35:38.910Z,882.77
2019-05-10T09:36:36.303Z,882.75
2019-05-10T09:37:34.477Z,882.78
2019-05-10T09:38:39.081Z,882.74
2019-05-10T09:39:34.455Z,882.73
2019-05-10T09:40:34.441Z,882.73
2019-05-10T09:41:38.208Z,882.73
2019-05-10T09:42:39.926Z,882.71
2019-05-10T09:43:34.400Z,882.71
2019-05-10T09:44:34.383Z,882.69
2019-05-10T09:45:34.379Z,882.71
2019-05-10T09:46:34.366Z,882.72
2019-05-10T09:47:34.352Z,882.71
2019-05-10T09:48:34.338Z,882.73
2019-05-10T09:49:34.324Z,882.69
2019-05-10T09:50:40.993Z,882.73
2019-05-10T09:51:34.293Z,882.74
2019-05-10T09:52:34.287Z,882.73
2019-05-10T09:53:34.267Z,882.75
2019-05-10T09:54:34.259Z,882.71
2019-05-10T09:55:34.251Z,882.73
2019-05-10T09:56:39.470Z,882.73
2019-05-10T09:57:34.222Z,882.74
2019-05-10T09:58:34.214Z,882.70
2019-05-10T09:59:34.200Z,882.69
2019-05-10T10:00:34.190Z,882.68
2019-05-10T10:01:34.174Z,882.67
2019-05-10T10:02:34.160Z,882.67
2019-05-10T10:03:39.887Z,882.67
2019-05-10T10:04:34.138Z,882.67
2019-05-10T10:05:34.121Z,882.71
2019-05-10T10:06:34.110Z,882.69
2019-05-10T10:07:34.100Z,882.69
2019-05-10T10:08:34.090Z,882.66
2019-05-10T10:09:41.968Z,882.64
2019-05-10T10:10:34.071Z,882.69
2019-05-10T10:11:34.066Z,882.67
2019-05-10T10:12:34.045Z,882.68
2019-05-10T10:13:43.087Z,882.68
2019-05-10T10:14:39.422Z,882.66
2019-05-10T10:15:34.427Z,882.66
2019-05-10T10:16:33.995Z,882.65
2019-05-10T10:17:39.497Z,882.67
2019-05-10T10:18:33.967Z,882.62
2019-05-10T10:19:33.953Z,882.61
2019-05-10T10:20:35.935Z,882.61
2019-05-10T10:21:35.596Z,882.61
2019-05-10T10:22:33.933Z,882.62
2019-05-10T10:23:37.220Z,882.62
2019-05-10T10:24:33.890Z,882.65
2019-05-10T10:25:35.185Z,882.64
2019-05-10T10:26:33.869Z,882.61
2019-05-10T10:27:36.059Z,882.64
2019-05-10T10:28:37.216Z,882.62
2019-05-10T10:29:35.958Z,882.63
2019-05-10T10:30:33.823Z,882.66
2019-05-10T10:31:39.187Z,882.67
2019-05-10T10:32:34.911Z,882.70
2019-05-10T10:33:33.777Z,882.71
2019-05-10T10:34:38.726Z,882.69
2019-05-10T10:35:33.753Z,882.67
2019-05-10T10:36:33.759Z,882.68
2019-05-10T10:37:33.732Z,882.67
2019-05-10T10:38:37.166Z,882.66
2019-05-10T10:39:33.711Z,882.69
2019-05-10T10:40:35.332Z,882.68
2019-05-10T10:41:33.684Z,882.69
2019-05-10T10:42:33.675Z,882.66
2019-05-10T10:43:33.660Z,882.68
2019-05-10T10:44:33.649Z,882.68
2019-05-10T10:45:33.633Z,882.67
2019-05-10T10:46:34.685Z,882.66
2019-05-10T10:47:33.618Z,882.65
2019-05-10T10:48:33.597Z,882.68
2019-05-10T10:49:33.591Z,882.69
2019-05-10T10:50:33.577Z,882.66
2019-05-10T10:51:34.533Z,882.67
2019-05-10T10:52:33.553Z,882.65
2019-05-10T10:53:33.539Z,882.64
2019-05-10T10:54:36.681Z,882.64
2019-05-10T10:55:36.874Z,882.61
2019-05-10T10:56:33.503Z,882.63
2019-05-10T10:57:33.502Z,882.61
2019-05-10T10:58:33.481Z,882.60
2019-05-10T10:59:33.471Z,882.62
2019-05-10T11:00:33.465Z,882.63
2019-05-10T11:01:47.239Z,882.64
2019-05-10T11:02:34.126Z,882.66
2019-05-10T11:03:33.439Z,882.63
2019-05-10T11:04:33.411Z,882.66
2019-05-10T11:05:33.398Z,882.63
2019-05-10T11:06:33.391Z,882.67
2019-05-10T11:07:35.964Z,882.64
2019-05-10T11:08:33.429Z,882.66
2019-05-10T11:09:33.350Z,882.60
2019-05-10T11:10:33.336Z,882.59
2019-05-10T11:11:38.894Z,882.59
2019-05-10T11:12:33.316Z,882.54
2019-05-10T11:13:44.960Z,882.54
2019-05-10T11:14:40.016Z,882.57
2019-05-10T11:15:36.127Z,882.57
2019-05-10T11:16:33.271Z,882.55
2019-05-10T11:17:33.249Z,882.58
2019-05-10T11:18:33.247Z,882.52
2019-05-10T11:19:33.239Z,882.52
2019-05-10T11:20:33.225Z,882.54
2019-05-10T11:21:33.407Z,882.51
2019-05-10T11:22:33.198Z,882.51
2019-05-10T11:23:38.675Z,882.51
2019-05-10T11:24:33.178Z,882.47
2019-05-10T11:25:33.158Z,882.46
2019-05-10T11:26:36.832Z,882.46
2019-05-10T11:27:33.139Z,882.42
2019-05-10T11:28:38.887Z,882.42
2019-05-10T11:29:33.118Z,882.42
2019-05-10T11:30:33.106Z,882.36
2019-05-10T11:31:33.093Z,882.37
2019-05-10T11:32:33.084Z,882.35
2019-05-10T11:33:33.829Z,882.37
2019-05-10T11:34:37.366Z,882.34
2019-05-10T11:35:34.652Z,882.36
2019-05-10T11:36:33.032Z,882.34
2019-05-10T11:37:36.476Z,882.40
2019-05-10T11:38:33.007Z,882.40
2019-05-10T11:39:40.746Z,882.46
2019-05-10T11:40:35.209Z,882.48
2019-05-10T11:41:32.972Z,882.50
2019-05-10T11:42:37.499Z,882.45
2019-05-10T11:43:32.950Z,882.49
2019-05-10T11:44:32.936Z,882.46
2019-05-10T11:45:35.321Z,882.42
2019-05-10T11:46:32.915Z,882.43
2019-05-10T11:47:32.896Z,882.40
2019-05-10T11:48:37.273Z,882.40
2019-05-10T11:49:32.879Z,882.42
2019-05-10T11:50:35.571Z,882.45
2019-05-10T11:51:32.860Z,882.46
2019-05-10T11:52:34.820Z,882.51
2019-05-10T11:53:32.833Z,882.52
2019-05-10T11:54:32.819Z,882.53
2019-05-10T11:55:35.787Z,882.50
2019-05-10T11:56:32.799Z,882.48
2019-05-10T11:57:33.123Z,882.41
2019-05-10T11:58:37.547Z,882.47
2019-05-10T11:59:38.252Z,882.48
2019-05-10T12:00:34.376Z,882.40
2019-05-10T12:01:32.741Z,882.43
2019-05-10T12:02:38.352Z,882.44
2019-05-10T12:03:32.716Z,882.45
2019-05-10T12:04:38.924Z,882.45
2019-05-10T12:05:32.692Z,882.50
2019-05-10T12:06:32.679Z,882.54
2019-05-10T12:07:42.434Z,882.51
2019-05-10T12:08:32.682Z,882.50
2019-05-10T12:09:32.650Z,882.51
2019-05-10T12:10:32.643Z,882.56
2019-05-10T12:11:34.039Z,882.53
2019-05-10T12:12:50.083Z,882.46
2019-05-10T12:13:32.810Z,882.46
2019-05-10T12:14:32.591Z,882.44
2019-05-10T12:15:32.577Z,882.43
2019-05-10T12:16:33.573Z,882.39
2019-05-10T12:17:32.559Z,882.46
2019-05-10T12:18:36.161Z,882.42
2019-05-10T12:20:54.323Z,882.44
2019-05-10T12:21:33.324Z,882.46
2019-05-10T12:22:38.146Z,882.46
2019-05-10T12:23:32.497Z,882.46
2019-05-10T12:24:46.815Z,882.47
2019-05-10T12:25:46.340Z,882.48
2019-05-10T12:26:20.112Z,882.46
2019-05-10T12:27:13.278Z,882.55
2019-05-10T12:27:44.343Z,882.54
2019-05-10T12:28:35.523Z,882.46